Data for 08/09/2008

Time Sea-Level Adjusted Pressure Absolute Pressure Temperature Relative Humidity Dew Point   
(mb) (inHg) (mb) (inHg) (C) (F) (%) (C) (F)
00:05 1019 30.09 848 25.04 14.5 58 87 12.3 54.2
00:10 1019 30.09 848 25.04 14.5 58.1 86 12.2 53.9
00:15 1019 30.09 848 25.04 14.8 58.6 87 12.6 54.6
00:20 1019 30.09 848 25.04 14.5 58.1 87 12.3 54.2
00:25 1019 30.09 848 25.04 14.2 57.5 88 12.2 54
00:30 1019 30.09 848 25.04 14.1 57.4 87 12.1 53.7
00:35 1019 30.09 848 25.04 14.2 57.5 86 12 53.6
00:40 1019 30.09 848 25.04 14.3 57.7 86 12 53.6
00:45 1019 30.09 848 25.04 14.4 57.9 86 12 53.6
00:50 1018 30.06 848 25.04 14.4 58 85 12 53.6
00:55 1018 30.06 848 25.04 14.5 58.1 84 11.9 53.4
01:00 1018 30.06 848 25.04 14.4 58 84 11.8 53.3
01:05 1018 30.06 848 25.04 14.5 58.2 84 11.8 53.3
01:10 1018 30.06 848 25.04 14.5 58.1 84 11.9 53.4
01:15 1019 30.09 848 25.04 14.3 57.7 85 11.8 53.2
01:20 1019 30.09 848 25.04 14.1 57.4 86 11.8 53.2
01:25 1019 30.09 848 25.04 14 57.1 86 11.7 53.1
01:30 1019 30.09 848 25.04 14.1 57.4 84 11.5 52.8
01:35 1019 30.09 848 25.04 14.2 57.6 85 11.7 53.1
01:40 1019 30.09 848 25.04 14.1 57.3 86 11.8 53.2
01:45 1019 30.09 848 25.04 13.9 56.9 86 11.6 52.9
01:50 1019 30.09 848 25.04 13.7 56.7 85 11.3 52.4
01:55 1018 30.06 848 25.04 13.9 57.1 85 11.5 52.6
02:00 1018 30.06 848 25.04 13.8 56.9 86 11.6 52.9
02:05 1018 30.06 848 25.04 13.6 56.5 86 11.4 52.5
02:10 1018 30.06 848 25.04 13.5 56.4 87 11.4 52.5
02:15 1018 30.06 848 25.04 13.4 56.1 87 11.3 52.3
02:20 1018 30.06 848 25.04 13.4 56.2 86 11.2 52.1
02:25 1018 30.06 848 25.04 13.6 56.5 84 11 51.9
02:30 1018 30.06 847 25.01 13.6 56.5 85 11.2 52.1
02:35 1018 30.06 847 25.01 13.3 56 87 11.1 52.1
02:40 1018 30.06 847 25.01 13.3 55.9 87 11.2 52.1
02:45 1018 30.06 847 25.01 13.2 55.8 86 10.9 51.7
02:50 1018 30.06 847 25.01 13.4 56.1 86 11.1 51.9
02:55 1018 30.06 847 25.01 13.4 56.1 85 11 51.8
03:00 1018 30.06 847 25.01 13.4 56 85 11 51.7
03:05 1018 30.06 847 25.01 13.5 56.2 85 11 51.8
03:10 1018 30.06 847 25.01 13.5 56.3 84 10.9 51.7
03:15 1018 30.06 847 25.01 13.4 56.2 85 11.1 51.9
03:20 1018 30.06 847 25.01 13.1 55.7 87 11 51.8
03:25 1018 30.06 848 25.04 12.9 55.3 87 10.8 51.4
03:30 1018 30.06 848 25.04 12.9 55.2 86 10.6 51.2
03:35 1018 30.06 847 25.01 13.1 55.6 85 10.7 51.3
03:40 1018 30.06 848 25.04 13.3 55.9 84 10.7 51.2
03:45 1018 30.06 847 25.01 13.9 57 81 10.8 51.4
03:50 1018 30.06 848 25.04 13.8 56.8 83 10.9 51.6
03:55 1018 30.06 848 25.04 13.9 57 82 10.8 51.5
04:00 1018 30.06 848 25.04 13.7 56.7 82 10.8 51.4
04:05 1018 30.06 848 25.04 13.5 56.3 83 10.7 51.3
04:10 1018 30.06 848 25.04 13.5 56.2 84 10.9 51.6
04:15 1018 30.06 848 25.04 13.2 55.8 86 11 51.7
04:20 1019 30.09 848 25.04 13 55.4 86 10.7 51.2
04:25 1019 30.09 848 25.04 12.7 54.8 88 10.7 51.3
04:30 1019 30.09 848 25.04 12.5 54.5 87 10.5 50.9
04:35 1019 30.09 848 25.04 13 55.4 83 10.2 50.4
04:40 1019 30.09 848 25.04 13.3 56 82 10.4 50.7
04:45 1019 30.09 848 25.04 13.4 56.2 81 10.2 50.4
04:50 1019 30.09 848 25.04 13.6 56.4 81 10.4 50.7
04:55 1019 30.09 848 25.04 13.6 56.4 82 10.6 51
05:00 1019 30.09 848 25.04 13.3 56 83 10.5 50.9
05:05 1019 30.09 848 25.04 13.3 55.9 83 10.5 51
05:10 1019 30.09 848 25.04 13 55.5 84 10.4 50.8
05:15 1019 30.09 848 25.04 12.8 55 85 10.4 50.7
05:20 1019 30.09 848 25.04 12.7 54.9 85 10.2 50.4
05:25 1019 30.09 848 25.04 12.7 54.9 85 10.2 50.4
05:30 1019 30.09 848 25.04 12.8 55 85 10.3 50.5
05:35 1019 30.09 848 25.04 12.6 54.8 86 10.4 50.7
05:40 1019 30.09 848 25.04 12.6 54.6 86 10.3 50.5
05:45 1019 30.09 848 25.04 12.6 54.7 85 10.2 50.4
05:50 1019 30.09 848 25.04 12.5 54.5 85 10.1 50.2
05:55 1019 30.09 848 25.04 12.5 54.5 85 10 50
06:00 1019 30.09 848 25.04 12.6 54.6 85 10.1 50.1
06:05 1019 30.09 848 25.04 12.3 54.2 85 10 49.9
06:10 1019 30.09 848 25.04 12.4 54.3 84 9.7 49.5
06:15 1019 30.09 848 25.04 12.5 54.5 85 10 50
06:20 1019 30.09 848 25.04 12.3 54.1 83 9.5 49.2
06:25 1019 30.09 848 25.04 12.6 54.6 81 9.4 49
06:30 1019 30.09 848 25.04 13 55.4 80 9.7 49.5
06:35 1019 30.09 848 25.04 13 55.5 80 9.7 49.5
06:40 1019 30.09 848 25.04 13.1 55.5 81 9.8 49.7
06:45 1019 30.09 848 25.04 12.8 55.1 82 9.8 49.7
06:50 1019 30.09 848 25.04 12.6 54.7 83 9.8 49.7
06:55 1019 30.09 848 25.04 12.7 54.8 82 9.7 49.4
07:00 1019 30.09 848 25.04 13.1 55.6 80 9.8 49.6
07:05 1019 30.09 848 25.04 13.3 55.9 80 9.8 49.7
07:10 1019 30.09 848 25.04 13.4 56 79 9.8 49.6
07:15 1019 30.09 848 25.04 13.5 56.2 78 9.7 49.5
07:20 1019 30.09 848 25.04 13.7 56.6 77 9.8 49.6
07:25 1019 30.09 848 25.04 13.9 57 77 9.9 49.9
07:30 1019 30.09 848 25.04 13.8 56.9 78 10.1 50.1
07:35 1019 30.09 848 25.04 13.7 56.7 79 10.1 50.2
07:40 1019 30.09 848 25.04 13.9 57 78 10.1 50.2
07:45 1019 30.09 848 25.04 14.1 57.4 77 10.1 50.2
07:50 1019 30.09 848 25.04 14.4 58 76 10.3 50.6
07:55 1019 30.09 848 25.04 15.1 59.2 74 10.6 51.2
08:00 1019 30.09 848 25.04 15.5 59.8 74 11 51.8
08:05 1019 30.09 848 25.04 15.5 59.8 74 10.8 51.5
08:10 1019 30.09 849 25.07 15.7 60.2 74 11.1 51.9
08:15 1019 30.09 849 25.07 15.8 60.4 74 11.3 52.3
08:20 1020 30.12 849 25.07 15.9 60.6 72 11 51.7
08:25 1020 30.12 849 25.07 16.3 61.3 71 11.2 52.1
08:30 1020 30.12 849 25.07 16.3 61.4 70 11 51.8
08:35 1020 30.12 849 25.07 16.4 61.6 72 11.3 52.4
08:40 1020 30.12 849 25.07 16.9 62.4 66 10.5 50.9
08:45 1020 30.12 849 25.07 17.3 63.2 66 11 51.9
08:50 1020 30.12 849 25.07 17.7 63.8 66 11.2 52.2
08:55 1020 30.12 849 25.07 17.8 64 65 11.1 51.9
09:00 1020 30.12 849 25.07 18.1 64.6 63 11 51.9
09:05 1019 30.09 849 25.07 18.4 65 65 11.8 53.2
09:10 1019 30.09 849 25.07 18.4 65 64 11.4 52.5
09:15 1019 30.09 849 25.07 18.3 64.9 62 11 51.9
09:20 1019 30.09 849 25.07 18.7 65.6 64 11.8 53.3
09:25 1019 30.09 849 25.07 18.5 65.3 62 11.1 52
09:30 1019 30.09 849 25.07 19.1 66.3 61 11.4 52.5
09:35 1019 30.09 849 25.07 19.4 66.9 61 11.7 53.1
09:40 1019 30.09 849 25.07 19.9 67.8 62 12.5 54.5
09:45 1019 30.09 849 25.07 19.8 67.6 59 11.6 52.8
09:50 1019 30.09 849 25.07 20.5 68.8 54 10.9 51.6
09:55 1019 30.09 848 25.04 20.9 69.6 53 11.2 52.2
10:00 1019 30.09 848 25.04 20.9 69.5 53 11 51.9
10:05 1019 30.09 848 25.04 21.4 70.4 51 11 51.9
10:10 1019 30.09 848 25.04 21.8 71.2 50 11 51.9
10:15 1019 30.09 848 25.04 21.6 70.9 50 11 51.8
10:20 1019 30.09 848 25.04 22.1 71.7 52 11.8 53.3
10:25 1019 30.09 849 25.07 22.1 71.8 52 11.8 53.3
10:30 1019 30.09 848 25.04 21.7 71.1 52 11.7 53
10:35 1019 30.09 848 25.04 21.9 71.3 51 11.5 52.7
10:40 1019 30.09 848 25.04 22.6 72.6 47 10.9 51.7
10:45 1019 30.09 848 25.04 23 73.4 45 10.7 51.2
10:50 1019 30.09 848 25.04 23.5 74.3 45 11.2 52.2
10:55 1019 30.09 848 25.04 24.1 75.3 46 11.9 53.4
11:00 1019 30.09 848 25.04 23 73.4 49 11.8 53.3
11:05 1019 30.09 848 25.04 23.1 73.6 48 11.8 53.2
11:10 1019 30.09 848 25.04 23.4 74.1 49 12.2 53.9
11:15 1019 30.09 848 25.04 22.7 72.8 52 12.3 54.2
11:20 1019 30.09 848 25.04 22.5 72.6 51 12 53.6
11:25 1019 30.09 848 25.04 22.8 73.1 49 11.6 52.9
11:30 1019 30.09 848 25.04 23.5 74.2 49 12.4 54.4
11:35 1019 30.09 848 25.04 23.4 74.1 47 11.6 53
11:40 1019 30.09 848 25.04 24.4 75.9 46 12.1 53.8
11:45 1019 30.09 848 25.04 24.3 75.7 46 12.1 53.8
11:50 1019 30.09 848 25.04 24 75.2 46 11.8 53.3
11:55 1019 30.09 848 25.04 25 76.9 45 12.3 54.1
12:00 1019 30.09 848 25.04 24.5 76.2 46 12.2 53.9
12:05 1019 30.09 848 25.04 25 76.9 45 12.4 54.3
12:10 1019 30.09 848 25.04 26 78.8 41 12.1 53.8
12:15 1019 30.09 848 25.04 26 78.8 42 12.4 54.3
12:20 1019 30.09 848 25.04 25.7 78.2 44 12.8 55.1
12:25 1019 30.09 848 25.04 25 77.1 43 11.6 52.9
12:30 1018 30.06 848 25.04 25.6 78.1 40 11.2 52.2
12:35 1018 30.06 848 25.04 26.3 79.3 41 12.4 54.3
12:40 1018 30.06 847 25.01 27 80.6 38 11.6 52.8
12:45 1018 30.06 847 25.01 26.2 79.1 40 11.6 52.8
12:50 1018 30.06 847 25.01 26.9 80.4 36 10.9 51.6
12:55 1018 30.06 847 25.01 27.5 81.5 36 11.1 52.1
13:00 1018 30.06 847 25.01 27.4 81.4 36 11.5 52.6
13:05 1018 30.06 847 25.01 27.5 81.6 39 12.5 54.4
13:10 1018 30.06 847 25.01 27.9 82.2 36 11.8 53.2
13:15 1018 30.06 847 25.01 27.9 82.3 32 9.9 49.9
13:20 1018 30.06 847 25.01 27.6 81.6 35 11.2 52.1
13:25 1018 30.06 847 25.01 26.4 79.5 38 11.1 52
13:30 1018 30.06 847 25.01 26.2 79.1 41 12.2 54
13:35 1018 30.06 847 25.01 25.6 78 46 13.4 56.1
13:40 1019 30.09 848 25.04 24.6 76.2 52 14.2 57.6
13:45 1019 30.09 848 25.04 23.3 74 55 13.9 57
13:50 1019 30.09 848 25.04 22.8 73.1 57 13.9 57.1
13:55 1019 30.09 848 25.04 22.6 72.7 57 13.9 57
14:00 1019 30.09 848 25.04 22.5 72.4 58 13.8 56.9
14:05 1020 30.12 849 25.07 22.2 71.9 58 13.7 56.6
14:10 1020 30.12 849 25.07 21.5 70.6 62 14 57.1
14:15 1020 30.12 849 25.07 20.1 68.1 59 11.9 53.5
14:20 1020 30.12 849 25.07 19.1 66.4 60 11.3 52.4
14:25 1019 30.09 849 25.07 19.4 67 54 9.9 49.8
14:30 1019 30.09 848 25.04 20 68.1 57 11.4 52.6
14:35 1019 30.09 848 25.04 20 68 47 8.6 47.5
14:40 1019 30.09 848 25.04 20.9 69.6 43 8.2 46.7
14:45 1019 30.09 848 25.04 21.2 70.2 50 10.4 50.8
14:50 1019 30.09 848 25.04 20.7 69.3 57 12 53.6
14:55 1019 30.09 848 25.04 20.8 69.4 52 10.6 51
15:00 1019 30.09 848 25.04 21.2 70.1 50 10.6 51.1
15:05 1019 30.09 848 25.04 21.6 70.9 49 10.6 51.1
15:10 1019 30.09 848 25.04 22.1 71.7 46 10 50
15:15 1019 30.09 848 25.04 22.4 72.4 46 10.3 50.6
15:20 1019 30.09 848 25.04 22.5 72.6 46 10.5 50.9
15:25 1019 30.09 848 25.04 22.4 72.3 44 9.8 49.6
15:30 1019 30.09 848 25.04 22.4 72.3 42 9.2 48.5
15:35 1019 30.09 848 25.04 22.7 72.8 43 9.5 49.1
15:40 1019 30.09 848 25.04 22.9 73.1 48 11.6 52.8
15:45 1019 30.09 848 25.04 22.6 72.6 51 12.1 53.8
15:50 1019 30.09 848 25.04 23.1 73.6 47 11.5 52.7
15:55 1019 30.09 848 25.04 23.7 74.6 46 11.4 52.5
16:00 1019 30.09 849 25.07 24 75.3 45 11.5 52.7
16:05 1019 30.09 849 25.07 23.9 75 42 10.5 50.8
16:10 1020 30.12 849 25.07 23.6 74.5 43 10.6 51
16:15 1020 30.12 849 25.07 23.5 74.2 42 9.9 49.8
16:20 1020 30.12 849 25.07 23.5 74.3 46 11.3 52.4
16:25 1020 30.12 849 25.07 23.3 73.9 45 10.7 51.3
16:30 1020 30.12 849 25.07 22.6 72.6 55 13.1 55.6
16:35 1020 30.12 849 25.07 22 71.5 56 12.8 55.1
16:40 1020 30.12 849 25.07 21.9 71.4 55 12.6 54.7
16:45 1020 30.12 850 25.1 21.8 71.3 56 12.8 55
16:50 1020 30.12 849 25.07 21.7 71 60 13.6 56.5
16:55 1020 30.12 849 25.07 20.9 69.7 64 14 57.2
17:00 1020 30.12 849 25.07 20.3 68.5 67 14.1 57.4
17:05 1020 30.12 849 25.07 19.6 67.4 76 15.3 59.5
17:10 1020 30.12 849 25.07 19.1 66.3 76 14.9 58.8
17:15 1019 30.09 848 25.04 18.8 65.8 74 14.1 57.4
17:20 1019 30.09 848 25.04 18.8 65.9 72 13.7 56.7
17:25 1019 30.09 848 25.04 18.9 65.9 73 13.9 57.1
17:30 1019 30.09 848 25.04 18.7 65.7 76 14.4 58
17:35 1019 30.09 848 25.04 18.5 65.3 75 14 57.3
17:40 1019 30.09 848 25.04 18.4 65 74 13.6 56.5
17:45 1019 30.09 848 25.04 18.2 64.8 75 13.7 56.7
17:50 1020 30.12 849 25.07 18.4 65.2 69 12.8 55
17:55 1019 30.09 849 25.07 18.7 65.6 68 12.6 54.8
18:00 1019 30.09 848 25.04 18.3 64.9 68 12.3 54.1
18:05 1018 30.06 847 25.01 18.5 65.3 66 12 53.6
18:10 1018 30.06 847 25.01 18.8 65.8 57 10.2 50.4
18:15 1018 30.06 847 25.01 19.6 67.4 57 11 51.9
18:20 1018 30.06 847 25.01 19.5 67.1 58 11.1 51.9
18:25 1018 30.06 847 25.01 19.6 67.3 55 10.3 50.6
18:30 1018 30.06 847 25.01 19.9 67.8 54 10.4 50.7
18:35 1018 30.06 847 25.01 20.3 68.5 48 9.1 48.4
18:40 1018 30.06 847 25.01 20.6 69 49 9.5 49
18:45 1018 30.06 847 25.01 20.5 68.9 50 9.8 49.6
18:50 1018 30.06 848 25.04 20.4 68.6 51 10.1 50.2
18:55 1019 30.09 848 25.04 19.8 67.7 57 11.1 52.1
19:00 1019 30.09 848 25.04 19.7 67.5 56 10.9 51.6
19:05 1019 30.09 848 25.04 20 67.9 53 10.3 50.5
19:10 1019 30.09 848 25.04 19.8 67.7 55 10.6 51
19:15 1019 30.09 848 25.04 19.4 67 58 11 51.7
19:20 1019 30.09 848 25.04 19.2 66.5 58 10.9 51.6
19:25 1018 30.06 848 25.04 19.1 66.5 61 11.5 52.7
19:30 1018 30.06 847 25.01 18.9 65.9 61 11.2 52.2
19:35 1018 30.06 848 25.04 18.7 65.7 59 10.7 51.3
19:40 1018 30.06 847 25.01 18.9 65.9 58 10.5 51
19:45 1018 30.06 847 25.01 19.1 66.4 59 11 51.8
19:50 1018 30.06 848 25.04 18.9 66.1 60 11.1 52
19:55 1018 30.06 847 25.01 18.7 65.6 62 11.4 52.5
20:00 1018 30.06 848 25.04 18.4 65.1 61 10.9 51.6
20:05 1018 30.06 847 25.01 18.6 65.5 59 10.4 50.8
20:10 1018 30.06 847 25.01 18.8 65.8 59 10.7 51.3
20:15 1018 30.06 847 25.01 18.5 65.2 60 10.6 51.1
20:20 1018 30.06 847 25.01 18.5 65.4 58 10.3 50.6
20:25 1018 30.06 848 25.04 18.9 66 58 10.6 51.1
20:30 1017 30.03 846 24.98 18.5 65.3 61 11 51.7
20:35 1016 30 845 24.95 18.4 65.1 55 9.4 48.9
20:40 1017 30.03 846 24.98 18.9 66.1 55 9.8 49.7
20:45 1017 30.03 846 24.98 18.9 66.1 55 9.8 49.7
20:50 1018 30.06 847 25.01 18.8 65.8 56 10 50
20:55 1018 30.06 847 25.01 18.7 65.7 56 9.7 49.5
21:00 1018 30.06 847 25.01 18.9 66 54 9.6 49.3
21:05 1018 30.06 847 25.01 19 66.2 53 9.3 48.7
21:10 1018 30.06 847 25.01 19 66.2 53 9.4 49
21:15 1018 30.06 847 25.01 19.2 66.6 48 8.2 46.8
21:20 1018 30.06 847 25.01 19.7 67.5 47 8.1 46.6
21:25 1019 30.09 848 25.04 19.9 67.8 46 8 46.3
21:30 1019 30.09 848 25.04 20.2 68.3 47 8.8 47.8
21:35 1019 30.09 849 25.07 20.3 68.5 44 7.7 45.8
21:40 1019 30.09 849 25.07 20.3 68.6 51 9.9 49.9
21:45 1019 30.09 848 25.04 19.3 66.8 54 10 50
21:50 1019 30.09 848 25.04 19.1 66.3 52 9.1 48.4
21:55 1019 30.09 848 25.04 19 66.2 54 9.7 49.5
22:00 1019 30.09 849 25.07 18.9 65.9 55 9.6 49.3
22:05 1019 30.09 849 25.07 19 66.2 55 9.8 49.6
22:10 1019 30.09 849 25.07 18.8 65.9 56 10.1 50.2
22:15 1019 30.09 848 25.04 18.5 65.3 58 10.1 50.2
22:20 1019 30.09 848 25.04 18.7 65.6 55 9.5 49.1
22:25 1019 30.09 848 25.04 19.1 66.3 49 8.3 46.9
22:30 1019 30.09 848 25.04 19.5 67 50 9 48.3
22:35 1019 30.09 848 25.04 19.4 66.8 51 9 48.2
22:40 1019 30.09 848 25.04 19.3 66.7 53 9.7 49.4
22:45 1019 30.09 848 25.04 19 66.3 50 8.4 47.1
22:50 1019 30.09 848 25.04 19.4 67 53 9.7 49.4
22:55 1019 30.09 848 25.04 18.8 65.9 57 10.3 50.5
23:00 1019 30.09 849 25.07 18.4 65.1 56 9.5 49.1
23:05 1019 30.09 849 25.07 18.5 65.2 58 10.1 50.2
23:10 1019 30.09 848 25.04 18.4 65.1 55 9.3 48.7
23:15 1018 30.06 848 25.04 18.6 65.5 53 8.9 48.1
23:20 1018 30.06 847 25.01 18.6 65.5 55 9.5 49.1
23:25 1018 30.06 847 25.01 18.9 66 50 8.3 47
23:30 1018 30.06 847 25.01 19.4 66.9 47 7.9 46.3
23:35 1018 30.06 847 25.01 19.9 67.8 47 8.5 47.3
23:40 1018 30.06 847 25.01 20 68 42 6.9 44.4
23:45 1018 30.06 848 25.04 19.5 67.1 58 11.3 52.3
23:50 1018 30.06 847 25.01 18.4 65 55 9.3 48.7
23:55 1018 30.06 848 25.04 18.6 65.4 57 9.9 49.7
24:00 1019 30.09 848 25.04 19 66.1 49 8.2 46.7